sensor_id;sensor_type;location;lat;lon;timestamp;temperature;humidity
7129;DHT22;3606;52.930;8.644;2023-05-16T00:00:41;10.20;99.90
7129;DHT22;3606;52.930;8.644;2023-05-16T00:03:07;10.10;99.90
7129;DHT22;3606;52.930;8.644;2023-05-16T00:05:32;10.10;99.90
7129;DHT22;3606;52.930;8.644;2023-05-16T00:07:58;10.10;99.90
7129;DHT22;3606;52.930;8.644;2023-05-16T00:10:23;10.10;99.90
7129;DHT22;3606;52.930;8.644;2023-05-16T00:12:49;10.20;99.90
7129;DHT22;3606;52.930;8.644;2023-05-16T00:15:18;10.20;99.90
7129;DHT22;3606;52.930;8.644;2023-05-16T00:17:45;10.20;78.80
7129;DHT22;3606;52.930;8.644;2023-05-16T00:20:13;10.10;99.90
7129;DHT22;3606;52.930;8.644;2023-05-16T00:22:42;10.10;99.90
7129;DHT22;3606;52.930;8.644;2023-05-16T00:25:08;10.00;99.90
7129;DHT22;3606;52.930;8.644;2023-05-16T00:27:34;10.00;99.90
7129;DHT22;3606;52.930;8.644;2023-05-16T00:30:01;10.00;99.90
7129;DHT22;3606;52.930;8.644;2023-05-16T00:32:27;10.00;99.90
7129;DHT22;3606;52.930;8.644;2023-05-16T00:34:53;10.10;99.90
7129;DHT22;3606;52.930;8.644;2023-05-16T00:37:18;10.00;99.90
7129;DHT22;3606;52.930;8.644;2023-05-16T00:39:44;10.10;99.90
7129;DHT22;3606;52.930;8.644;2023-05-16T00:42:10;10.10;99.90
7129;DHT22;3606;52.930;8.644;2023-05-16T00:44:35;10.00;99.90
7129;DHT22;3606;52.930;8.644;2023-05-16T00:47:01;10.00;99.90
7129;DHT22;3606;52.930;8.644;2023-05-16T00:49:28;10.00;99.90
7129;DHT22;3606;52.930;8.644;2023-05-16T00:51:55;10.00;99.90
7129;DHT22;3606;52.930;8.644;2023-05-16T00:54:21;10.10;2.80
7129;DHT22;3606;52.930;8.644;2023-05-16T00:56:47;10.10;7.20
7129;DHT22;3606;52.930;8.644;2023-05-16T00:59:13;10.00;12.80
7129;DHT22;3606;52.930;8.644;2023-05-16T01:01:40;10.00;1.00
7129;DHT22;3606;52.930;8.644;2023-05-16T01:04:06;10.00;15.70
7129;DHT22;3606;52.930;8.644;2023-05-16T01:06:33;10.00;1.00
7129;DHT22;3606;52.930;8.644;2023-05-16T01:08:59;10.00;1.00
7129;DHT22;3606;52.930;8.644;2023-05-16T01:17:41;10.00;1.00
7129;DHT22;3606;52.930;8.644;2023-05-16T01:25:37;10.00;1.00
7129;DHT22;3606;52.930;8.644;2023-05-16T01:28:04;9.90;1.00
7129;DHT22;3606;52.930;8.644;2023-05-16T01:30:39;9.90;1.00
7129;DHT22;3606;52.930;8.644;2023-05-16T01:33:06;9.90;1.00
7129;DHT22;3606;52.930;8.644;2023-05-16T01:35:32;9.90;1.00
7129;DHT22;3606;52.930;8.644;2023-05-16T01:40:51;9.90;1.00
7129;DHT22;3606;52.930;8.644;2023-05-16T01:43:24;9.80;1.00
7129;DHT22;3606;52.930;8.644;2023-05-16T01:45:59;9.80;1.00
7129;DHT22;3606;52.930;8.644;2023-05-16T01:48:31;9.80;1.00
7129;DHT22;3606;52.930;8.644;2023-05-16T01:51:00;9.80;1.00
7129;DHT22;3606;52.930;8.644;2023-05-16T01:53:30;9.80;1.00
7129;DHT22;3606;52.930;8.644;2023-05-16T01:55:59;9.90;1.00
7129;DHT22;3606;52.930;8.644;2023-05-16T01:58:29;9.90;1.00
7129;DHT22;3606;52.930;8.644;2023-05-16T02:01:00;9.80;1.00
7129;DHT22;3606;52.930;8.644;2023-05-16T02:03:28;9.80;1.00
7129;DHT22;3606;52.930;8.644;2023-05-16T02:05:54;9.80;1.00
7129;DHT22;3606;52.930;8.644;2023-05-16T02:08:21;9.80;1.00
7129;DHT22;3606;52.930;8.644;2023-05-16T02:10:46;9.80;1.00
7129;DHT22;3606;52.930;8.644;2023-05-16T02:13:12;9.80;1.00
7129;DHT22;3606;52.930;8.644;2023-05-16T02:15:37;9.80;1.00
7129;DHT22;3606;52.930;8.644;2023-05-16T02:18:03;9.80;1.00
7129;DHT22;3606;52.930;8.644;2023-05-16T02:20:29;9.80;1.00
7129;DHT22;3606;52.930;8.644;2023-05-16T02:22:55;9.70;1.00
7129;DHT22;3606;52.930;8.644;2023-05-16T02:25:21;9.70;1.00
7129;DHT22;3606;52.930;8.644;2023-05-16T02:27:46;9.70;1.00
7129;DHT22;3606;52.930;8.644;2023-05-16T02:30:12;9.70;1.00
7129;DHT22;3606;52.930;8.644;2023-05-16T02:32:41;9.60;1.00
7129;DHT22;3606;52.930;8.644;2023-05-16T02:35:09;9.70;1.00
7129;DHT22;3606;52.930;8.644;2023-05-16T02:37:35;9.60;1.00
7129;DHT22;3606;52.930;8.644;2023-05-16T02:40:01;9.60;1.00
7129;DHT22;3606;52.930;8.644;2023-05-16T02:42:30;9.60;1.00
7129;DHT22;3606;52.930;8.644;2023-05-16T02:44:56;9.60;1.00
7129;DHT22;3606;52.930;8.644;2023-05-16T02:47:22;9.50;1.00
7129;DHT22;3606;52.930;8.644;2023-05-16T02:49:47;9.50;1.00
7129;DHT22;3606;52.930;8.644;2023-05-16T02:52:13;9.50;1.00
7129;DHT22;3606;52.930;8.644;2023-05-16T02:54:38;9.40;1.00
7129;DHT22;3606;52.930;8.644;2023-05-16T02:57:04;9.20;1.00
7129;DHT22;3606;52.930;8.644;2023-05-16T02:59:30;9.20;1.00
7129;DHT22;3606;52.930;8.644;2023-05-16T03:01:55;9.10;1.00
7129;DHT22;3606;52.930;8.644;2023-05-16T03:04:21;9.00;1.00
7129;DHT22;3606;52.930;8.644;2023-05-16T03:06:48;8.90;1.00
7129;DHT22;3606;52.930;8.644;2023-05-16T03:09:15;8.90;1.00
7129;DHT22;3606;52.930;8.644;2023-05-16T03:11:41;8.80;1.00
7129;DHT22;3606;52.930;8.644;2023-05-16T03:14:07;8.70;1.00
7129;DHT22;3606;52.930;8.644;2023-05-16T03:16:32;8.60;1.00
7129;DHT22;3606;52.930;8.644;2023-05-16T03:18:58;8.50;1.00
7129;DHT22;3606;52.930;8.644;2023-05-16T03:21:24;8.40;1.00
7129;DHT22;3606;52.930;8.644;2023-05-16T03:23:50;8.30;1.00
7129;DHT22;3606;52.930;8.644;2023-05-16T03:26:15;8.20;1.00
7129;DHT22;3606;52.930;8.644;2023-05-16T03:28:41;8.00;1.80
7129;DHT22;3606;52.930;8.644;2023-05-16T03:31:06;8.00;3.10
7129;DHT22;3606;52.930;8.644;2023-05-16T03:33:32;7.90;9.80
7129;DHT22;3606;52.930;8.644;2023-05-16T03:35:58;7.90;11.30
7129;DHT22;3606;52.930;8.644;2023-05-16T03:38:23;7.90;6.20
7129;DHT22;3606;52.930;8.644;2023-05-16T03:40:49;7.90;1.00
7129;DHT22;3606;52.930;8.644;2023-05-16T03:43:15;7.80;2.20
7129;DHT22;3606;52.930;8.644;2023-05-16T03:45:41;7.80;16.40
7129;DHT22;3606;52.930;8.644;2023-05-16T03:48:07;7.80;8.50
7129;DHT22;3606;52.930;8.644;2023-05-16T03:50:34;7.80;1.00
7129;DHT22;3606;52.930;8.644;2023-05-16T03:53:01;7.90;1.00
7129;DHT22;3606;52.930;8.644;2023-05-16T03:55:27;7.80;2.20
7129;DHT22;3606;52.930;8.644;2023-05-16T03:57:53;7.80;1.00
7129;DHT22;3606;52.930;8.644;2023-05-16T04:00:19;7.80;1.00
7129;DHT22;3606;52.930;8.644;2023-05-16T04:02:44;7.70;1.00
7129;DHT22;3606;52.930;8.644;2023-05-16T04:05:11;7.80;1.00
7129;DHT22;3606;52.930;8.644;2023-05-16T04:07:38;7.80;1.00
7129;DHT22;3606;52.930;8.644;2023-05-16T04:10:04;7.80;1.00
7129;DHT22;3606;52.930;8.644;2023-05-16T04:12:30;7.80;1.00
7129;DHT22;3606;52.930;8.644;2023-05-16T04:14:55;7.80;1.00
7129;DHT22;3606;52.930;8.644;2023-05-16T04:17:21;7.80;1.00
7129;DHT22;3606;52.930;8.644;2023-05-16T04:19:47;7.80;1.00
7129;DHT22;3606;52.930;8.644;2023-05-16T04:22:12;7.80;1.00
7129;DHT22;3606;52.930;8.644;2023-05-16T04:24:38;7.80;1.00
7129;DHT22;3606;52.930;8.644;2023-05-16T04:27:04;7.80;1.00
7129;DHT22;3606;52.930;8.644;2023-05-16T04:29:31;7.80;1.00
7129;DHT22;3606;52.930;8.644;2023-05-16T04:31:56;7.80;1.00
7129;DHT22;3606;52.930;8.644;2023-05-16T04:34:22;7.80;1.00
7129;DHT22;3606;52.930;8.644;2023-05-16T04:36:52;7.80;1.00
7129;DHT22;3606;52.930;8.644;2023-05-16T04:39:18;7.80;1.00
7129;DHT22;3606;52.930;8.644;2023-05-16T04:41:43;7.80;1.00
7129;DHT22;3606;52.930;8.644;2023-05-16T04:44:09;7.90;1.00
7129;DHT22;3606;52.930;8.644;2023-05-16T04:46:35;7.90;1.00
7129;DHT22;3606;52.930;8.644;2023-05-16T04:49:01;7.80;1.00
7129;DHT22;3606;52.930;8.644;2023-05-16T04:51:26;7.80;1.00
7129;DHT22;3606;52.930;8.644;2023-05-16T04:53:52;7.80;1.00
7129;DHT22;3606;52.930;8.644;2023-05-16T04:56:18;7.80;1.00
7129;DHT22;3606;52.930;8.644;2023-05-16T04:58:44;7.80;1.00
7129;DHT22;3606;52.930;8.644;2023-05-16T05:01:09;7.90;1.00
7129;DHT22;3606;52.930;8.644;2023-05-16T05:03:35;7.90;1.00
7129;DHT22;3606;52.930;8.644;2023-05-16T05:06:02;8.00;1.00
7129;DHT22;3606;52.930;8.644;2023-05-16T05:08:27;8.20;1.00
7129;DHT22;3606;52.930;8.644;2023-05-16T05:10:55;8.30;1.00
7129;DHT22;3606;52.930;8.644;2023-05-16T05:13:20;8.50;1.00
7129;DHT22;3606;52.930;8.644;2023-05-16T05:15:46;8.70;1.00
7129;DHT22;3606;52.930;8.644;2023-05-16T05:18:11;8.80;1.00
7129;DHT22;3606;52.930;8.644;2023-05-16T05:20:37;8.90;1.00
7129;DHT22;3606;52.930;8.644;2023-05-16T05:23:03;9.00;1.00
7129;DHT22;3606;52.930;8.644;2023-05-16T05:25:28;9.00;1.00
7129;DHT22;3606;52.930;8.644;2023-05-16T05:27:54;9.00;1.00
7129;DHT22;3606;52.930;8.644;2023-05-16T05:30:20;9.00;1.00
7129;DHT22;3606;52.930;8.644;2023-05-16T05:32:45;9.20;1.00
7129;DHT22;3606;52.930;8.644;2023-05-16T05:35:11;9.40;1.00
7129;DHT22;3606;52.930;8.644;2023-05-16T05:37:36;9.80;1.00
7129;DHT22;3606;52.930;8.644;2023-05-16T05:40:02;10.10;1.00
7129;DHT22;3606;52.930;8.644;2023-05-16T05:42:28;10.40;1.00
7129;DHT22;3606;52.930;8.644;2023-05-16T05:44:54;10.60;99.90
7129;DHT22;3606;52.930;8.644;2023-05-16T05:47:19;10.60;99.90
7129;DHT22;3606;52.930;8.644;2023-05-16T05:49:46;10.70;99.90
7129;DHT22;3606;52.930;8.644;2023-05-16T05:52:12;10.50;99.90
7129;DHT22;3606;52.930;8.644;2023-05-16T05:54:37;10.30;99.90
7129;DHT22;3606;52.930;8.644;2023-05-16T05:57:03;10.20;99.90
7129;DHT22;3606;52.930;8.644;2023-05-16T05:59:29;10.30;99.90
7129;DHT22;3606;52.930;8.644;2023-05-16T06:01:54;10.40;99.90
7129;DHT22;3606;52.930;8.644;2023-05-16T06:04:20;10.60;99.90
7129;DHT22;3606;52.930;8.644;2023-05-16T06:06:46;10.90;99.90
7129;DHT22;3606;52.930;8.644;2023-05-16T06:09:12;10.90;99.90
7129;DHT22;3606;52.930;8.644;2023-05-16T06:11:39;11.20;99.90
7129;DHT22;3606;52.930;8.644;2023-05-16T06:14:05;11.50;99.90
7129;DHT22;3606;52.930;8.644;2023-05-16T06:16:31;11.70;1.00
7129;DHT22;3606;52.930;8.644;2023-05-16T06:18:56;11.80;1.00
7129;DHT22;3606;52.930;8.644;2023-05-16T06:21:22;11.90;1.00
7129;DHT22;3606;52.930;8.644;2023-05-16T06:23:47;12.00;1.00
7129;DHT22;3606;52.930;8.644;2023-05-16T06:26:13;11.90;1.00
7129;DHT22;3606;52.930;8.644;2023-05-16T06:28:39;11.80;1.00
7129;DHT22;3606;52.930;8.644;2023-05-16T06:31:04;11.90;1.00
7129;DHT22;3606;52.930;8.644;2023-05-16T06:33:30;11.80;1.00
7129;DHT22;3606;52.930;8.644;2023-05-16T06:35:55;11.70;1.00
7129;DHT22;3606;52.930;8.644;2023-05-16T06:38:21;12.00;1.00
7129;DHT22;3606;52.930;8.644;2023-05-16T06:40:46;12.40;1.00
7129;DHT22;3606;52.930;8.644;2023-05-16T06:43:12;12.70;1.00
7129;DHT22;3606;52.930;8.644;2023-05-16T06:45:38;13.10;1.00
7129;DHT22;3606;52.930;8.644;2023-05-16T06:48:05;13.30;1.00
7129;DHT22;3606;52.930;8.644;2023-05-16T06:50:31;13.10;1.00
7129;DHT22;3606;52.930;8.644;2023-05-16T06:52:57;13.00;1.00
7129;DHT22;3606;52.930;8.644;2023-05-16T06:55:23;12.70;99.90
7129;DHT22;3606;52.930;8.644;2023-05-16T06:57:48;12.90;10.40
7129;DHT22;3606;52.930;8.644;2023-05-16T07:00:14;12.90;99.90
7129;DHT22;3606;52.930;8.644;2023-05-16T07:02:40;12.80;99.90
7129;DHT22;3606;52.930;8.644;2023-05-16T07:05:06;13.10;38.40
7129;DHT22;3606;52.930;8.644;2023-05-16T07:07:31;13.40;99.90
7129;DHT22;3606;52.930;8.644;2023-05-16T07:09:57;13.40;99.90
7129;DHT22;3606;52.930;8.644;2023-05-16T07:12:23;13.60;99.90
7129;DHT22;3606;52.930;8.644;2023-05-16T07:14:48;13.70;99.90
7129;DHT22;3606;52.930;8.644;2023-05-16T07:17:14;13.90;99.90
7129;DHT22;3606;52.930;8.644;2023-05-16T07:19:40;13.90;99.90
7129;DHT22;3606;52.930;8.644;2023-05-16T07:22:06;13.20;99.90
7129;DHT22;3606;52.930;8.644;2023-05-16T07:24:31;12.80;99.90
7129;DHT22;3606;52.930;8.644;2023-05-16T07:26:57;12.50;99.90
7129;DHT22;3606;52.930;8.644;2023-05-16T07:29:23;13.20;99.90
7129;DHT22;3606;52.930;8.644;2023-05-16T07:31:49;14.20;99.90
7129;DHT22;3606;52.930;8.644;2023-05-16T07:34:14;14.00;99.90
7129;DHT22;3606;52.930;8.644;2023-05-16T07:36:40;13.20;99.90
7129;DHT22;3606;52.930;8.644;2023-05-16T07:39:05;12.60;99.90
7129;DHT22;3606;52.930;8.644;2023-05-16T07:41:31;12.10;99.90
7129;DHT22;3606;52.930;8.644;2023-05-16T07:43:56;12.10;99.90
7129;DHT22;3606;52.930;8.644;2023-05-16T07:46:22;12.40;99.90
7129;DHT22;3606;52.930;8.644;2023-05-16T07:48:48;12.70;99.90
7129;DHT22;3606;52.930;8.644;2023-05-16T07:51:14;12.70;99.90
7129;DHT22;3606;52.930;8.644;2023-05-16T07:53:39;13.60;99.90
7129;DHT22;3606;52.930;8.644;2023-05-16T07:56:06;14.40;99.90
7129;DHT22;3606;52.930;8.644;2023-05-16T07:58:32;15.00;99.90
7129;DHT22;3606;52.930;8.644;2023-05-16T08:00:58;15.50;99.90
7129;DHT22;3606;52.930;8.644;2023-05-16T08:03:23;15.90;99.90
7129;DHT22;3606;52.930;8.644;2023-05-16T08:05:49;16.20;99.90
7129;DHT22;3606;52.930;8.644;2023-05-16T08:08:16;16.40;99.90
7129;DHT22;3606;52.930;8.644;2023-05-16T08:10:42;16.50;99.90
7129;DHT22;3606;52.930;8.644;2023-05-16T08:13:07;15.70;99.90
7129;DHT22;3606;52.930;8.644;2023-05-16T08:15:34;14.30;99.90
7129;DHT22;3606;52.930;8.644;2023-05-16T08:17:59;14.70;99.90
7129;DHT22;3606;52.930;8.644;2023-05-16T08:20:26;15.60;99.90
7129;DHT22;3606;52.930;8.644;2023-05-16T08:22:51;16.10;99.90
7129;DHT22;3606;52.930;8.644;2023-05-16T08:25:17;15.90;99.90
7129;DHT22;3606;52.930;8.644;2023-05-16T08:27:48;15.90;99.90
7129;DHT22;3606;52.930;8.644;2023-05-16T08:30:13;16.50;99.90
7129;DHT22;3606;52.930;8.644;2023-05-16T08:32:39;17.30;99.90
7129;DHT22;3606;52.930;8.644;2023-05-16T08:35:05;17.90;99.90
7129;DHT22;3606;52.930;8.644;2023-05-16T08:37:31;17.40;99.90
7129;DHT22;3606;52.930;8.644;2023-05-16T08:39:58;16.10;99.90
7129;DHT22;3606;52.930;8.644;2023-05-16T08:42:23;15.30;99.90
7129;DHT22;3606;52.930;8.644;2023-05-16T08:44:49;14.30;99.90
7129;DHT22;3606;52.930;8.644;2023-05-16T08:47:18;13.70;99.90
7129;DHT22;3606;52.930;8.644;2023-05-16T08:49:47;13.60;99.90
7129;DHT22;3606;52.930;8.644;2023-05-16T08:52:13;13.90;99.90
7129;DHT22;3606;52.930;8.644;2023-05-16T08:54:43;14.50;99.90
7129;DHT22;3606;52.930;8.644;2023-05-16T08:57:10;15.80;99.90
7129;DHT22;3606;52.930;8.644;2023-05-16T08:59:36;17.00;99.90
7129;DHT22;3606;52.930;8.644;2023-05-16T09:02:02;17.80;99.90
7129;DHT22;3606;52.930;8.644;2023-05-16T09:04:29;18.40;99.90
7129;DHT22;3606;52.930;8.644;2023-05-16T09:06:55;17.30;99.90
7129;DHT22;3606;52.930;8.644;2023-05-16T09:09:22;16.20;99.90
7129;DHT22;3606;52.930;8.644;2023-05-16T09:11:48;15.30;99.90
7129;DHT22;3606;52.930;8.644;2023-05-16T09:14:14;14.70;99.90
7129;DHT22;3606;52.930;8.644;2023-05-16T09:16:39;15.30;99.90
7129;DHT22;3606;52.930;8.644;2023-05-16T09:19:05;15.00;99.90
7129;DHT22;3606;52.930;8.644;2023-05-16T09:21:32;14.80;99.90
7129;DHT22;3606;52.930;8.644;2023-05-16T09:24:04;15.80;99.90
7129;DHT22;3606;52.930;8.644;2023-05-16T09:26:32;16.90;99.90
7129;DHT22;3606;52.930;8.644;2023-05-16T09:28:58;17.80;99.90
7129;DHT22;3606;52.930;8.644;2023-05-16T09:31:25;18.20;99.90
7129;DHT22;3606;52.930;8.644;2023-05-16T09:33:57;18.20;99.90
7129;DHT22;3606;52.930;8.644;2023-05-16T09:36:24;17.70;99.90
7129;DHT22;3606;52.930;8.644;2023-05-16T09:38:51;18.60;99.90
7129;DHT22;3606;52.930;8.644;2023-05-16T09:41:16;18.80;99.90
7129;DHT22;3606;52.930;8.644;2023-05-16T09:43:42;17.20;99.90
7129;DHT22;3606;52.930;8.644;2023-05-16T09:46:14;16.10;99.90
7129;DHT22;3606;52.930;8.644;2023-05-16T09:48:44;16.50;99.90
7129;DHT22;3606;52.930;8.644;2023-05-16T09:51:11;17.00;99.90
7129;DHT22;3606;52.930;8.644;2023-05-16T09:53:37;16.10;99.90
7129;DHT22;3606;52.930;8.644;2023-05-16T09:56:07;16.50;99.90
7129;DHT22;3606;52.930;8.644;2023-05-16T09:58:36;15.90;99.90
7129;DHT22;3606;52.930;8.644;2023-05-16T10:01:03;15.30;99.90
7129;DHT22;3606;52.930;8.644;2023-05-16T10:03:29;15.40;99.90
7129;DHT22;3606;52.930;8.644;2023-05-16T10:05:55;16.70;99.90
7129;DHT22;3606;52.930;8.644;2023-05-16T10:08:22;17.80;99.90
7129;DHT22;3606;52.930;8.644;2023-05-16T10:10:51;17.80;99.90
7129;DHT22;3606;52.930;8.644;2023-05-16T10:13:27;17.40;99.90
7129;DHT22;3606;52.930;8.644;2023-05-16T10:15:55;18.20;99.90
7129;DHT22;3606;52.930;8.644;2023-05-16T10:18:23;18.50;99.90
7129;DHT22;3606;52.930;8.644;2023-05-16T10:20:52;18.30;99.90
7129;DHT22;3606;52.930;8.644;2023-05-16T10:23:19;17.40;99.90
7129;DHT22;3606;52.930;8.644;2023-05-16T10:25:47;15.90;99.90
7129;DHT22;3606;52.930;8.644;2023-05-16T10:28:17;14.80;99.90
7129;DHT22;3606;52.930;8.644;2023-05-16T10:30:44;14.00;99.90
7129;DHT22;3606;52.930;8.644;2023-05-16T10:33:15;14.00;99.90
7129;DHT22;3606;52.930;8.644;2023-05-16T10:35:42;16.10;99.90
7129;DHT22;3606;52.930;8.644;2023-05-16T10:38:09;17.70;99.90
7129;DHT22;3606;52.930;8.644;2023-05-16T10:40:37;18.70;99.90
7129;DHT22;3606;52.930;8.644;2023-05-16T10:43:04;19.00;99.90
7129;DHT22;3606;52.930;8.644;2023-05-16T10:45:30;18.40;99.90
7129;DHT22;3606;52.930;8.644;2023-05-16T10:48:01;17.90;99.90
7129;DHT22;3606;52.930;8.644;2023-05-16T10:50:43;18.40;99.90
7129;DHT22;3606;52.930;8.644;2023-05-16T10:53:38;19.50;99.90
7129;DHT22;3606;52.930;8.644;2023-05-16T10:56:08;19.60;99.90
7129;DHT22;3606;52.930;8.644;2023-05-16T11:01:29;20.10;99.90
7129;DHT22;3606;52.930;8.644;2023-05-16T11:06:33;18.50;99.90
7129;DHT22;3606;52.930;8.644;2023-05-16T11:09:05;17.20;99.90
7129;DHT22;3606;52.930;8.644;2023-05-16T11:14:02;14.80;99.90
7129;DHT22;3606;52.930;8.644;2023-05-16T11:16:28;12.90;99.90
7129;DHT22;3606;52.930;8.644;2023-05-16T11:18:54;12.20;99.90
7129;DHT22;3606;52.930;8.644;2023-05-16T11:22:07;12.30;99.90
7129;DHT22;3606;52.930;8.644;2023-05-16T11:24:33;13.30;99.90
7129;DHT22;3606;52.930;8.644;2023-05-16T11:27:00;13.10;1.00
7129;DHT22;3606;52.930;8.644;2023-05-16T11:29:28;13.80;50.20
7129;DHT22;3606;52.930;8.644;2023-05-16T11:31:58;14.30;1.00
7129;DHT22;3606;52.930;8.644;2023-05-16T11:34:24;13.70;1.00
7129;DHT22;3606;52.930;8.644;2023-05-16T11:36:49;13.00;1.00
7129;DHT22;3606;52.930;8.644;2023-05-16T11:39:16;13.00;1.00
7129;DHT22;3606;52.930;8.644;2023-05-16T11:41:42;13.80;1.00
7129;DHT22;3606;52.930;8.644;2023-05-16T11:44:11;14.90;1.00
7129;DHT22;3606;52.930;8.644;2023-05-16T11:46:38;16.00;99.90
7129;DHT22;3606;52.930;8.644;2023-05-16T11:49:06;16.60;99.90
7129;DHT22;3606;52.930;8.644;2023-05-16T11:51:32;16.20;99.90
7129;DHT22;3606;52.930;8.644;2023-05-16T11:54:00;15.60;99.90
7129;DHT22;3606;52.930;8.644;2023-05-16T11:56:26;14.50;99.90
7129;DHT22;3606;52.930;8.644;2023-05-16T11:58:52;14.00;1.00
7129;DHT22;3606;52.930;8.644;2023-05-16T12:01:17;14.10;1.00
7129;DHT22;3606;52.930;8.644;2023-05-16T12:03:43;14.70;99.90
7129;DHT22;3606;52.930;8.644;2023-05-16T12:06:09;15.50;99.90
7129;DHT22;3606;52.930;8.644;2023-05-16T12:08:35;15.80;99.90
7129;DHT22;3606;52.930;8.644;2023-05-16T12:11:01;16.40;99.90
7129;DHT22;3606;52.930;8.644;2023-05-16T12:13:26;16.70;99.90
7129;DHT22;3606;52.930;8.644;2023-05-16T12:15:52;16.90;1.00
7129;DHT22;3606;52.930;8.644;2023-05-16T12:18:18;17.40;1.00
7129;DHT22;3606;52.930;8.644;2023-05-16T12:20:45;17.70;99.90
7129;DHT22;3606;52.930;8.644;2023-05-16T12:23:12;17.40;99.90
7129;DHT22;3606;52.930;8.644;2023-05-16T12:25:39;16.40;99.90
7129;DHT22;3606;52.930;8.644;2023-05-16T12:28:11;14.90;99.90
7129;DHT22;3606;52.930;8.644;2023-05-16T12:30:40;13.80;1.00
7129;DHT22;3606;52.930;8.644;2023-05-16T12:33:11;12.90;1.00
7129;DHT22;3606;52.930;8.644;2023-05-16T12:35:40;12.20;1.00
7129;DHT22;3606;52.930;8.644;2023-05-16T12:38:07;11.70;1.00
7129;DHT22;3606;52.930;8.644;2023-05-16T12:40:35;12.30;34.60
7129;DHT22;3606;52.930;8.644;2023-05-16T12:43:01;14.00;1.00
7129;DHT22;3606;52.930;8.644;2023-05-16T12:45:27;14.80;1.00
7129;DHT22;3606;52.930;8.644;2023-05-16T12:47:53;15.50;99.90
7129;DHT22;3606;52.930;8.644;2023-05-16T12:50:19;16.30;1.00
7129;DHT22;3606;52.930;8.644;2023-05-16T12:52:49;17.60;99.90
7129;DHT22;3606;52.930;8.644;2023-05-16T12:55:16;19.10;99.90
7129;DHT22;3606;52.930;8.644;2023-05-16T12:57:43;20.10;99.90
7129;DHT22;3606;52.930;8.644;2023-05-16T13:00:10;20.40;99.90
7129;DHT22;3606;52.930;8.644;2023-05-16T13:02:37;19.80;99.90
7129;DHT22;3606;52.930;8.644;2023-05-16T13:05:03;19.60;99.90
7129;DHT22;3606;52.930;8.644;2023-05-16T13:07:29;20.20;99.90
7129;DHT22;3606;52.930;8.644;2023-05-16T13:09:55;20.20;99.90
7129;DHT22;3606;52.930;8.644;2023-05-16T13:12:20;20.80;99.90
7129;DHT22;3606;52.930;8.644;2023-05-16T13:14:51;20.30;99.90
7129;DHT22;3606;52.930;8.644;2023-05-16T13:17:17;19.90;99.90
7129;DHT22;3606;52.930;8.644;2023-05-16T13:19:42;20.00;99.90
7129;DHT22;3606;52.930;8.644;2023-05-16T13:22:08;21.10;99.90
7129;DHT22;3606;52.930;8.644;2023-05-16T13:24:33;20.50;99.90
7129;DHT22;3606;52.930;8.644;2023-05-16T13:26:59;19.30;99.90
7129;DHT22;3606;52.930;8.644;2023-05-16T13:29:25;18.60;99.90
7129;DHT22;3606;52.930;8.644;2023-05-16T13:31:50;17.90;99.90
7129;DHT22;3606;52.930;8.644;2023-05-16T13:34:16;18.40;99.90
7129;DHT22;3606;52.930;8.644;2023-05-16T13:36:42;17.20;99.90
7129;DHT22;3606;52.930;8.644;2023-05-16T13:39:07;16.00;99.90
7129;DHT22;3606;52.930;8.644;2023-05-16T13:41:33;14.70;99.90
7129;DHT22;3606;52.930;8.644;2023-05-16T13:44:02;13.50;1.00
7129;DHT22;3606;52.930;8.644;2023-05-16T13:46:28;12.70;1.00
7129;DHT22;3606;52.930;8.644;2023-05-16T13:48:53;12.20;1.00
7129;DHT22;3606;52.930;8.644;2023-05-16T13:51:19;12.10;1.00
7129;DHT22;3606;52.930;8.644;2023-05-16T13:53:45;12.10;1.00
7129;DHT22;3606;52.930;8.644;2023-05-16T13:56:10;12.00;1.00
7129;DHT22;3606;52.930;8.644;2023-05-16T13:58:36;12.40;27.10
7129;DHT22;3606;52.930;8.644;2023-05-16T14:01:01;13.20;1.00
7129;DHT22;3606;52.930;8.644;2023-05-16T14:03:27;14.50;1.00
7129;DHT22;3606;52.930;8.644;2023-05-16T14:05:53;16.80;99.90
7129;DHT22;3606;52.930;8.644;2023-05-16T14:08:18;17.50;1.00
7129;DHT22;3606;52.930;8.644;2023-05-16T14:10:44;18.50;99.90
7129;DHT22;3606;52.930;8.644;2023-05-16T14:13:10;18.50;99.90
7129;DHT22;3606;52.930;8.644;2023-05-16T14:15:35;18.10;99.90
7129;DHT22;3606;52.930;8.644;2023-05-16T14:18:01;17.70;99.90
7129;DHT22;3606;52.930;8.644;2023-05-16T14:20:29;16.60;99.90
7129;DHT22;3606;52.930;8.644;2023-05-16T14:22:54;17.10;99.90
7129;DHT22;3606;52.930;8.644;2023-05-16T14:25:21;17.90;99.90
7129;DHT22;3606;52.930;8.644;2023-05-16T14:27:46;18.10;99.90
7129;DHT22;3606;52.930;8.644;2023-05-16T14:30:15;18.00;99.90
7129;DHT22;3606;52.930;8.644;2023-05-16T14:32:41;17.90;99.90
7129;DHT22;3606;52.930;8.644;2023-05-16T14:35:07;16.90;99.90
7129;DHT22;3606;52.930;8.644;2023-05-16T14:37:34;16.10;99.90
7129;DHT22;3606;52.930;8.644;2023-05-16T14:39:59;15.40;55.60
7129;DHT22;3606;52.930;8.644;2023-05-16T14:42:25;13.90;99.90
7129;DHT22;3606;52.930;8.644;2023-05-16T14:44:51;12.80;99.90
7129;DHT22;3606;52.930;8.644;2023-05-16T14:47:17;12.50;1.00
7129;DHT22;3606;52.930;8.644;2023-05-16T14:49:42;14.10;1.00
7129;DHT22;3606;52.930;8.644;2023-05-16T14:52:08;15.40;99.90
7129;DHT22;3606;52.930;8.644;2023-05-16T14:54:34;16.20;1.00
7129;DHT22;3606;52.930;8.644;2023-05-16T14:56:59;16.70;1.00
7129;DHT22;3606;52.930;8.644;2023-05-16T14:59:26;16.90;1.00
7129;DHT22;3606;52.930;8.644;2023-05-16T15:01:52;17.30;1.00
7129;DHT22;3606;52.930;8.644;2023-05-16T15:04:17;17.90;1.00
7129;DHT22;3606;52.930;8.644;2023-05-16T15:06:43;17.70;1.00
7129;DHT22;3606;52.930;8.644;2023-05-16T15:09:08;17.90;1.00
7129;DHT22;3606;52.930;8.644;2023-05-16T15:11:34;17.20;1.00
7129;DHT22;3606;52.930;8.644;2023-05-16T15:14:00;16.60;1.00
7129;DHT22;3606;52.930;8.644;2023-05-16T15:16:26;16.40;99.90
7129;DHT22;3606;52.930;8.644;2023-05-16T15:18:51;15.10;1.00
7129;DHT22;3606;52.930;8.644;2023-05-16T15:21:17;14.30;1.00
7129;DHT22;3606;52.930;8.644;2023-05-16T15:23:43;14.80;1.00
7129;DHT22;3606;52.930;8.644;2023-05-16T15:26:09;15.90;1.00
7129;DHT22;3606;52.930;8.644;2023-05-16T15:28:35;15.80;99.90
7129;DHT22;3606;52.930;8.644;2023-05-16T15:31:02;15.00;99.90
7129;DHT22;3606;52.930;8.644;2023-05-16T15:33:29;14.50;1.00
7129;DHT22;3606;52.930;8.644;2023-05-16T15:35:55;14.30;1.00
7129;DHT22;3606;52.930;8.644;2023-05-16T15:38:21;14.40;1.00
7129;DHT22;3606;52.930;8.644;2023-05-16T15:40:47;14.70;1.00
7129;DHT22;3606;52.930;8.644;2023-05-16T15:43:12;14.80;99.90
7129;DHT22;3606;52.930;8.644;2023-05-16T15:45:38;14.60;99.90
7129;DHT22;3606;52.930;8.644;2023-05-16T15:48:03;14.30;99.90
7129;DHT22;3606;52.930;8.644;2023-05-16T15:50:29;14.10;99.90
7129;DHT22;3606;52.930;8.644;2023-05-16T15:52:55;13.90;99.90
7129;DHT22;3606;52.930;8.644;2023-05-16T15:55:22;13.70;99.90
7129;DHT22;3606;52.930;8.644;2023-05-16T15:57:48;13.40;99.90
7129;DHT22;3606;52.930;8.644;2023-05-16T16:00:14;13.10;99.90
7129;DHT22;3606;52.930;8.644;2023-05-16T16:02:40;12.90;1.00
7129;DHT22;3606;52.930;8.644;2023-05-16T16:05:07;12.90;1.00
7129;DHT22;3606;52.930;8.644;2023-05-16T16:07:33;13.10;1.00
7129;DHT22;3606;52.930;8.644;2023-05-16T16:09:59;13.20;1.00
7129;DHT22;3606;52.930;8.644;2023-05-16T16:12:24;13.20;1.00
7129;DHT22;3606;52.930;8.644;2023-05-16T16:14:50;13.60;1.00
7129;DHT22;3606;52.930;8.644;2023-05-16T16:17:16;13.90;1.00
7129;DHT22;3606;52.930;8.644;2023-05-16T16:19:41;14.00;1.00
7129;DHT22;3606;52.930;8.644;2023-05-16T16:22:07;14.00;1.00
7129;DHT22;3606;52.930;8.644;2023-05-16T16:24:33;14.00;1.00
7129;DHT22;3606;52.930;8.644;2023-05-16T16:26:58;14.20;1.00
7129;DHT22;3606;52.930;8.644;2023-05-16T16:29:24;14.10;1.00